Time;durP1;ratioP1;P1;durP2;ratioP2;P2;SDS_P1;SDS_P2;PMS_P1;PMS_P2;Temp;Humidity;BMP_temperature;BMP_pressure;BME280_temperature;BME280_humidity;BME280_pressure;Samples;Min_cycle;Max_cycle;Signal;HPM_P1;HPM_P2
2021/07/17 00:01:08;;;;;;;;;;;24.30;67.50;;;;;;4959748;28;19914;-60
2021/07/17 00:03:34;;;;;;;;;;;24.30;67.50;;;;;;4961980;28;20347;-60
2021/07/17 00:05:59;;;;;;;;;;;24.30;67.40;;;;;;4961991;28;20000;-60
2021/07/17 00:08:25;;;;;;;;;;;24.20;67.20;;;;;;4962541;28;19968;-59
2021/07/17 00:10:50;;;;;;;;;;;24.30;67.50;;;;;;4961136;28;19915;-59
2021/07/17 00:13:16;;;;;;;;;;;24.30;67.40;;;;;;4961306;28;20371;-60
2021/07/17 00:15:41;;;;;;;;;;;24.30;67.20;;;;;;4977465;28;20017;-60
2021/07/17 00:18:07;;;;;;;;;;;24.30;67.30;;;;;;4962933;28;19918;-60
2021/07/17 00:20:33;;;;;;;;;;;24.30;67.30;;;;;;4961596;28;20062;-59
2021/07/17 00:22:58;;;;;;;;;;;24.20;67.20;;;;;;4961864;28;19922;-60
2021/07/17 00:25:24;;;;;;;;;;;24.30;67.10;;;;;;4963055;28;19914;-59
2021/07/17 00:27:49;;;;;;;;;;;24.30;67.20;;;;;;4961621;28;19984;-60
2021/07/17 00:30:15;;;;;;;;;;;24.30;67.20;;;;;;4961570;28;20020;-60
2021/07/17 00:32:40;;;;;;;;;;;24.30;67.40;;;;;;4962440;28;20325;-65
2021/07/17 00:35:06;;;;;;;;;;;24.20;67.60;;;;;;4961149;28;19929;-59
2021/07/17 00:37:31;;;;;;;;;;;24.30;67.30;;;;;;4962936;28;20073;-60
2021/07/17 00:39:57;;;;;;;;;;;24.30;67.40;;;;;;4967465;28;20387;-60
2021/07/17 00:42:22;;;;;;;;;;;24.30;67.40;;;;;;4972179;28;19922;-60
2021/07/17 00:44:48;;;;;;;;;;;24.30;67.30;;;;;;4978240;28;19918;-60
2021/07/17 00:47:13;;;;;;;;;;;24.30;67.20;;;;;;4970125;28;19922;-60
2021/07/17 00:49:39;;;;;;;;;;;24.30;67.10;;;;;;4971954;28;19918;-60
2021/07/17 00:52:04;;;;;;;;;;;24.30;67.20;;;;;;4968082;28;19914;-59
2021/07/17 00:54:30;;;;;;;;;;;24.30;67.20;;;;;;4961496;28;19922;-59
2021/07/17 00:56:57;;;;;;;;;;;24.30;67.10;;;;;;4960623;28;19914;-59
2021/07/17 00:59:23;;;;;;;;;;;24.30;67.10;;;;;;4947414;28;19921;-61
2021/07/17 01:01:50;;;;;;;;;;;24.30;67.10;;;;;;4959786;28;19914;-59
2021/07/17 01:04:15;;;;;;;;;;;24.30;67.00;;;;;;4959701;28;19915;-60
2021/07/17 01:06:41;;;;;;;;;;;24.30;67.20;;;;;;4962646;28;19921;-64
2021/07/17 01:09:06;;;;;;;;;;;24.30;67.20;;;;;;4972662;28;20691;-59
2021/07/17 01:11:32;;;;;;;;;;;24.30;67.10;;;;;;4972655;28;19937;-60
2021/07/17 01:13:57;;;;;;;;;;;24.30;67.10;;;;;;4972782;28;19973;-60
2021/07/17 01:16:23;;;;;;;;;;;24.30;67.40;;;;;;4977856;28;19921;-59
2021/07/17 01:18:48;;;;;;;;;;;24.30;67.20;;;;;;4995777;28;19925;-58
2021/07/17 01:21:15;;;;;;;;;;;24.30;67.10;;;;;;5009551;28;19914;-59
2021/07/17 01:23:40;;;;;;;;;;;24.30;67.20;;;;;;4974372;28;19922;-58
2021/07/17 01:26:05;;;;;;;;;;;24.30;67.10;;;;;;4999003;28;20327;-60
2021/07/17 01:28:31;;;;;;;;;;;24.30;67.00;;;;;;4994776;28;19921;-61
2021/07/17 01:30:56;;;;;;;;;;;24.30;67.10;;;;;;4971360;28;19918;-58
2021/07/17 01:33:22;;;;;;;;;;;24.30;67.00;;;;;;4963757;28;19922;-58
2021/07/17 01:35:48;;;;;;;;;;;24.30;67.40;;;;;;4972432;28;20331;-58
2021/07/17 01:38:14;;;;;;;;;;;24.30;67.40;;;;;;4979889;28;20507;-59
2021/07/17 01:40:39;;;;;;;;;;;24.30;67.20;;;;;;4982388;28;19914;-60
2021/07/17 01:43:05;;;;;;;;;;;24.30;67.20;;;;;;4977071;28;20364;-58
2021/07/17 01:45:32;;;;;;;;;;;24.30;67.40;;;;;;4983296;28;19922;-60
2021/07/17 01:47:57;;;;;;;;;;;24.30;67.10;;;;;;4977576;28;19914;-60
2021/07/17 01:50:29;;;;;;;;;;;24.30;67.30;;;;;;4971126;28;20295;-60
2021/07/17 01:52:54;;;;;;;;;;;24.30;67.00;;;;;;4962674;28;19957;-60
2021/07/17 01:55:20;;;;;;;;;;;24.30;67.10;;;;;;4964039;28;20004;-59
2021/07/17 01:57:48;;;;;;;;;;;24.30;67.40;;;;;;4964932;28;20053;-60
2021/07/17 02:00:14;;;;;;;;;;;24.30;67.10;;;;;;4962786;28;19937;-60
2021/07/17 02:02:40;;;;;;;;;;;24.30;67.30;;;;;;4963822;28;20335;-59
2021/07/17 02:05:05;;;;;;;;;;;24.30;67.20;;;;;;4963361;28;20029;-60
2021/07/17 02:07:31;;;;;;;;;;;24.30;67.20;;;;;;4964218;28;20012;-60
2021/07/17 02:09:57;;;;;;;;;;;24.30;66.90;;;;;;4962105;28;19918;-60
2021/07/17 02:12:23;;;;;;;;;;;24.30;66.90;;;;;;4965047;28;19965;-60
2021/07/17 02:14:49;;;;;;;;;;;24.30;67.00;;;;;;4964256;28;19915;-60
2021/07/17 02:17:14;;;;;;;;;;;24.30;67.40;;;;;;4964279;28;19914;-59
2021/07/17 02:19:40;;;;;;;;;;;24.20;67.60;;;;;;4963173;28;20396;-60
2021/07/17 02:22:05;;;;;;;;;;;24.20;67.70;;;;;;4964074;28;20004;-60
2021/07/17 02:24:31;;;;;;;;;;;24.20;67.60;;;;;;4963148;28;19922;-59
2021/07/17 02:26:56;;;;;;;;;;;24.20;67.70;;;;;;4962907;28;19914;-60
2021/07/17 02:29:21;;;;;;;;;;;24.20;67.90;;;;;;4977918;28;20424;-58
2021/07/17 02:31:47;;;;;;;;;;;24.20;67.70;;;;;;4963109;28;19938;-59
2021/07/17 02:34:12;;;;;;;;;;;24.20;67.80;;;;;;4963464;28;19925;-60
2021/07/17 02:36:38;;;;;;;;;;;24.20;67.60;;;;;;4964211;28;20009;-58
2021/07/17 02:39:04;;;;;;;;;;;24.20;68.20;;;;;;4963708;28;20289;-59
2021/07/17 02:41:29;;;;;;;;;;;24.20;67.60;;;;;;4963033;28;19945;-60
2021/07/17 02:43:55;;;;;;;;;;;24.20;67.60;;;;;;4963268;28;20421;-59
2021/07/17 02:46:21;;;;;;;;;;;24.20;67.50;;;;;;4963406;28;20396;-60
2021/07/17 02:48:46;;;;;;;;;;;24.20;67.30;;;;;;4963487;28;20009;-61
2021/07/17 02:51:12;;;;;;;;;;;24.20;67.50;;;;;;4962300;28;19968;-59
2021/07/17 02:53:38;;;;;;;;;;;24.20;67.60;;;;;;4963930;28;19925;-59
2021/07/17 02:56:03;;;;;;;;;;;24.20;67.50;;;;;;4962473;28;19914;-60
2021/07/17 02:58:29;;;;;;;;;;;24.20;67.60;;;;;;4963250;28;20008;-59
2021/07/17 03:00:54;;;;;;;;;;;24.20;67.50;;;;;;4961743;28;20041;-58
2021/07/17 03:03:20;;;;;;;;;;;24.10;67.70;;;;;;4963036;28;20350;-60
2021/07/17 03:05:45;;;;;;;;;;;24.10;67.80;;;;;;4962793;28;20421;-59
2021/07/17 03:08:14;;;;;;;;;;;24.00;67.80;;;;;;4977880;28;19921;-59
2021/07/17 03:10:39;;;;;;;;;;;24.10;67.90;;;;;;4971765;28;19921;-59
2021/07/17 03:13:04;;;;;;;;;;;24.10;67.80;;;;;;4966198;28;19922;-60
2021/07/17 03:15:30;;;;;;;;;;;24.10;67.70;;;;;;4982247;28;19921;-59
2021/07/17 03:17:55;;;;;;;;;;;24.10;67.80;;;;;;4970052;28;19940;-59
2021/07/17 03:20:21;;;;;;;;;;;24.10;67.60;;;;;;4973178;28;19914;-59
2021/07/17 03:22:46;;;;;;;;;;;24.20;67.50;;;;;;4963522;28;19914;-58
2021/07/17 03:25:12;;;;;;;;;;;24.20;67.60;;;;;;5004310;28;20282;-64
2021/07/17 03:27:37;;;;;;;;;;;24.20;67.60;;;;;;4971384;28;19914;-60
2021/07/17 03:30:04;;;;;;;;;;;24.20;67.50;;;;;;4975909;28;19980;-60
2021/07/17 03:32:29;;;;;;;;;;;24.20;67.50;;;;;;4980738;28;19921;-59
2021/07/17 03:34:55;;;;;;;;;;;24.10;67.50;;;;;;4971574;28;19914;-59
2021/07/17 03:37:20;;;;;;;;;;;24.10;67.40;;;;;;4970949;28;20346;-60
2021/07/17 03:39:45;;;;;;;;;;;24.10;67.50;;;;;;4982730;28;20302;-59
2021/07/17 03:42:11;;;;;;;;;;;24.20;67.40;;;;;;4977940;28;19914;-59
2021/07/17 03:44:36;;;;;;;;;;;24.10;67.60;;;;;;4974068;28;19918;-61
2021/07/17 03:47:02;;;;;;;;;;;24.00;67.80;;;;;;4973649;28;19978;-59
2021/07/17 03:49:28;;;;;;;;;;;24.00;67.80;;;;;;4977768;28;19954;-60
2021/07/17 03:51:53;;;;;;;;;;;24.00;67.80;;;;;;5001101;28;19952;-60
2021/07/17 03:54:19;;;;;;;;;;;24.10;67.70;;;;;;4965582;28;19950;-57
2021/07/17 03:56:44;;;;;;;;;;;24.10;67.80;;;;;;4960468;28;19914;-60
2021/07/17 03:59:10;;;;;;;;;;;24.10;67.70;;;;;;4963014;28;19969;-59
2021/07/17 04:01:35;;;;;;;;;;;24.10;67.60;;;;;;4962032;28;19918;-59
2021/07/17 04:04:01;;;;;;;;;;;24.10;67.60;;;;;;4963029;28;19920;-59
2021/07/17 04:06:26;;;;;;;;;;;24.10;67.40;;;;;;4961703;28;20569;-60
2021/07/17 04:08:51;;;;;;;;;;;24.10;67.60;;;;;;4962628;28;19925;-60
2021/07/17 04:11:17;;;;;;;;;;;24.20;67.50;;;;;;4962100;28;20402;-59
2021/07/17 04:13:42;;;;;;;;;;;24.20;67.10;;;;;;4962724;28;19955;-59
2021/07/17 04:16:08;;;;;;;;;;;24.20;67.40;;;;;;4963164;28;19914;-59
2021/07/17 04:18:33;;;;;;;;;;;24.20;67.40;;;;;;4962194;28;19933;-58
2021/07/17 04:20:59;;;;;;;;;;;24.20;67.40;;;;;;4961714;28;20287;-59
2021/07/17 04:23:24;;;;;;;;;;;24.10;67.30;;;;;;4962438;28;19921;-60
2021/07/17 04:25:50;;;;;;;;;;;24.20;67.30;;;;;;4962027;28;19985;-60
2021/07/17 04:28:15;;;;;;;;;;;24.20;67.30;;;;;;4961998;28;19914;-60
2021/07/17 04:30:40;;;;;;;;;;;24.10;67.20;;;;;;4962434;28;19965;-59
2021/07/17 04:33:06;;;;;;;;;;;24.20;67.00;;;;;;4965482;28;19915;-60
2021/07/17 04:35:31;;;;;;;;;;;24.20;66.90;;;;;;4965734;28;20964;-59
2021/07/17 04:37:57;;;;;;;;;;;24.10;67.10;;;;;;4980445;28;20343;-60
2021/07/17 04:40:22;;;;;;;;;;;24.20;67.30;;;;;;4965157;28;19925;-60
2021/07/17 04:42:48;;;;;;;;;;;24.20;67.10;;;;;;4966236;28;19914;-58
2021/07/17 04:45:14;;;;;;;;;;;24.20;67.10;;;;;;4964266;28;19921;-61
2021/07/17 04:47:39;;;;;;;;;;;24.20;67.20;;;;;;4965882;28;20004;-60
2021/07/17 04:50:05;;;;;;;;;;;24.20;67.30;;;;;;4964682;28;19918;-59
2021/07/17 04:52:30;;;;;;;;;;;24.20;67.10;;;;;;4965431;28;19914;-60
2021/07/17 04:54:56;;;;;;;;;;;24.10;67.10;;;;;;4966761;28;19918;-60
2021/07/17 04:57:21;;;;;;;;;;;24.20;67.30;;;;;;4964989;28;19914;-59
2021/07/17 04:59:47;;;;;;;;;;;24.10;67.30;;;;;;4966467;28;19933;-59
2021/07/17 05:02:12;;;;;;;;;;;24.10;67.70;;;;;;4966624;28;19936;-64
2021/07/17 05:04:38;;;;;;;;;;;24.20;67.00;;;;;;4967763;28;19915;-60
2021/07/17 05:07:03;;;;;;;;;;;24.10;67.30;;;;;;4966133;28;20001;-60
2021/07/17 05:09:29;;;;;;;;;;;24.10;67.30;;;;;;4966067;28;19949;-59
2021/07/17 05:11:54;;;;;;;;;;;24.10;67.20;;;;;;4965057;28;20407;-58
2021/07/17 05:14:20;;;;;;;;;;;24.10;67.20;;;;;;4965770;28;20623;-60
2021/07/17 05:16:45;;;;;;;;;;;24.10;67.10;;;;;;4965388;28;19914;-58
2021/07/17 05:19:11;;;;;;;;;;;24.10;67.10;;;;;;4964454;28;19919;-59
2021/07/17 05:21:36;;;;;;;;;;;24.10;67.80;;;;;;4964974;28;19918;-60
2021/07/17 05:24:02;;;;;;;;;;;24.10;67.10;;;;;;4965825;28;20616;-58
2021/07/17 05:26:29;;;;;;;;;;;24.20;67.10;;;;;;4978208;28;22461;-59
2021/07/17 05:28:55;;;;;;;;;;;24.10;67.00;;;;;;4964956;28;19920;-59
2021/07/17 05:31:20;;;;;;;;;;;24.10;67.00;;;;;;4964932;28;20416;-60
2021/07/17 05:33:46;;;;;;;;;;;24.00;67.40;;;;;;4965240;28;19921;-59
2021/07/17 05:36:11;;;;;;;;;;;24.00;67.40;;;;;;4965657;28;19925;-59
2021/07/17 05:38:36;;;;;;;;;;;24.00;67.30;;;;;;4963803;28;20716;-59
2021/07/17 05:41:02;;;;;;;;;;;24.10;67.30;;;;;;4977112;28;19922;-60
2021/07/17 05:43:27;;;;;;;;;;;24.00;67.20;;;;;;4969574;28;19918;-60
2021/07/17 05:45:54;;;;;;;;;;;24.00;67.20;;;;;;4977434;28;19918;-59
2021/07/17 05:48:20;;;;;;;;;;;24.00;67.30;;;;;;4965858;28;20013;-59
2021/07/17 05:50:47;;;;;;;;;;;24.00;66.90;;;;;;4963968;28;20004;-59
2021/07/17 05:53:13;;;;;;;;;;;24.00;67.30;;;;;;4970945;28;20355;-60
2021/07/17 05:55:38;;;;;;;;;;;24.00;67.20;;;;;;4977069;28;19921;-60
2021/07/17 05:58:04;;;;;;;;;;;24.10;67.30;;;;;;4980662;28;20399;-59
2021/07/17 06:00:29;;;;;;;;;;;24.10;67.30;;;;;;4983620;28;19913;-59
2021/07/17 06:02:55;;;;;;;;;;;24.10;67.10;;;;;;4967480;28;19917;-60
2021/07/17 06:05:20;;;;;;;;;;;24.10;67.10;;;;;;4983540;28;19914;-60
2021/07/17 06:07:46;;;;;;;;;;;24.10;67.30;;;;;;4965163;28;20288;-60
2021/07/17 06:10:11;;;;;;;;;;;24.10;67.30;;;;;;4965196;28;19952;-61
2021/07/17 06:12:37;;;;;;;;;;;24.00;67.00;;;;;;4965204;28;19922;-60
2021/07/17 06:15:03;;;;;;;;;;;24.00;67.00;;;;;;4969161;28;20971;-60
2021/07/17 06:17:28;;;;;;;;;;;24.00;67.70;;;;;;4969842;28;19922;-60
2021/07/17 06:19:54;;;;;;;;;;;23.90;67.20;;;;;;4962256;28;19921;-60
2021/07/17 06:22:19;;;;;;;;;;;23.80;67.10;;;;;;4962247;28;19914;-59
2021/07/17 06:24:45;;;;;;;;;;;23.80;67.20;;;;;;4995416;28;19926;-60
2021/07/17 06:27:10;;;;;;;;;;;23.80;67.20;;;;;;4967599;28;19918;-60
2021/07/17 06:29:36;;;;;;;;;;;23.70;67.20;;;;;;4974699;28;19952;-60
2021/07/17 06:32:02;;;;;;;;;;;23.70;67.30;;;;;;4967788;28;20569;-60
2021/07/17 06:34:27;;;;;;;;;;;23.60;67.40;;;;;;4969480;28;19915;-60
2021/07/17 06:36:53;;;;;;;;;;;23.60;67.60;;;;;;4981909;28;19929;-60
2021/07/17 06:39:19;;;;;;;;;;;23.60;67.50;;;;;;4973628;28;19922;-60
2021/07/17 06:41:44;;;;;;;;;;;23.60;68.10;;;;;;4967105;28;19921;-61
2021/07/17 06:44:10;;;;;;;;;;;23.60;68.00;;;;;;4983891;28;20000;-60
2021/07/17 06:46:35;;;;;;;;;;;23.60;67.80;;;;;;4964725;28;20360;-60
2021/07/17 06:49:00;;;;;;;;;;;23.60;67.80;;;;;;4975846;28;19914;-59
2021/07/17 06:51:26;;;;;;;;;;;23.60;67.50;;;;;;4990791;28;19991;-61
2021/07/17 06:53:51;;;;;;;;;;;23.60;67.50;;;;;;4967173;28;19918;-59
2021/07/17 06:56:17;;;;;;;;;;;23.60;67.60;;;;;;4963288;28;19921;-59
2021/07/17 06:58:42;;;;;;;;;;;23.50;67.60;;;;;;4965002;28;19918;-59
2021/07/17 07:01:08;;;;;;;;;;;23.50;67.70;;;;;;4962806;28;19933;-61
2021/07/17 07:03:33;;;;;;;;;;;23.50;67.80;;;;;;4963152;28;19918;-60
2021/07/17 07:05:59;;;;;;;;;;;23.50;67.90;;;;;;4963865;28;20019;-61
2021/07/17 07:08:25;;;;;;;;;;;23.50;67.90;;;;;;4963617;28;19923;-60
2021/07/17 07:10:51;;;;;;;;;;;23.50;67.90;;;;;;4978600;28;20414;-58
2021/07/17 07:13:16;;;;;;;;;;;23.50;67.90;;;;;;4963294;28;19933;-60
2021/07/17 07:15:41;;;;;;;;;;;23.50;68.00;;;;;;4964070;28;19918;-60
2021/07/17 07:18:07;;;;;;;;;;;23.50;68.00;;;;;;4964216;28;19925;-60
2021/07/17 07:20:32;;;;;;;;;;;23.50;68.10;;;;;;4963431;28;22208;-59
2021/07/17 07:22:58;;;;;;;;;;;23.50;68.40;;;;;;4962329;28;20431;-59
2021/07/17 07:25:24;;;;;;;;;;;23.60;68.60;;;;;;4964565;28;19918;-60
2021/07/17 07:27:49;;;;;;;;;;;23.60;69.20;;;;;;4963332;28;20276;-60
2021/07/17 07:30:15;;;;;;;;;;;23.50;68.70;;;;;;4961278;28;20053;-59
2021/07/17 07:32:40;;;;;;;;;;;23.50;68.80;;;;;;4959798;28;19970;-60
2021/07/17 07:35:06;;;;;;;;;;;23.50;68.60;;;;;;4963853;28;20348;-59
2021/07/17 07:37:31;;;;;;;;;;;23.50;68.80;;;;;;4958805;28;19918;-61
2021/07/17 07:39:57;;;;;;;;;;;23.50;68.60;;;;;;4963324;28;20121;-59
2021/07/17 07:42:23;;;;;;;;;;;23.50;68.50;;;;;;4963210;28;19940;-58
2021/07/17 07:44:49;;;;;;;;;;;23.50;68.50;;;;;;4962116;28;19925;-58
2021/07/17 07:47:14;;;;;;;;;;;23.40;68.50;;;;;;4960217;28;19918;-60
2021/07/17 07:49:41;;;;;;;;;;;23.40;68.90;;;;;;4962772;28;19922;-60
2021/07/17 07:52:06;;;;;;;;;;;23.40;69.00;;;;;;4962057;28;19929;-61
2021/07/17 07:54:32;;;;;;;;;;;23.40;70.30;;;;;;4965003;28;20332;-60
2021/07/17 07:56:57;;;;;;;;;;;23.50;70.10;;;;;;4964674;28;20089;-60
2021/07/17 07:59:23;;;;;;;;;;;23.40;69.90;;;;;;4993268;23;19984;-70
2021/07/17 08:01:48;;;;;;;;;;;23.40;69.80;;;;;;4986727;28;19914;-72
2021/07/17 08:04:14;;;;;;;;;;;23.40;69.70;;;;;;4987972;28;20312;-70
2021/07/17 08:06:39;;;;;;;;;;;23.40;69.20;;;;;;4998063;28;19918;-73
2021/07/17 08:09:04;;;;;;;;;;;23.30;69.50;;;;;;4976567;28;19947;-71
2021/07/17 08:11:31;;;;;;;;;;;23.30;69.60;;;;;;4971360;28;20360;-71
2021/07/17 08:13:57;;;;;;;;;;;23.40;69.60;;;;;;4983333;28;20017;-70
2021/07/17 08:16:22;;;;;;;;;;;23.40;69.40;;;;;;4992116;28;19918;-70
2021/07/17 08:18:48;;;;;;;;;;;23.40;69.00;;;;;;4972749;28;19918;-71
2021/07/17 08:21:13;;;;;;;;;;;23.40;69.00;;;;;;4998205;28;19976;-71
2021/07/17 08:23:39;;;;;;;;;;;23.40;69.00;;;;;;4984999;28;20623;-70
2021/07/17 08:26:04;;;;;;;;;;;23.40;69.00;;;;;;4986604;28;19996;-71
2021/07/17 08:28:30;;;;;;;;;;;23.40;69.20;;;;;;4986219;28;19921;-71
2021/07/17 08:30:55;;;;;;;;;;;23.50;68.90;;;;;;4984247;28;19918;-71
2021/07/17 08:33:21;;;;;;;;;;;23.40;68.90;;;;;;4985008;28;19922;-71
2021/07/17 08:35:46;;;;;;;;;;;23.40;69.00;;;;;;4990916;28;20021;-70
2021/07/17 08:38:12;;;;;;;;;;;23.40;68.90;;;;;;4975980;28;19930;-70
2021/07/17 08:40:38;;;;;;;;;;;23.40;68.90;;;;;;4988335;28;19917;-70
2021/07/17 08:43:04;;;;;;;;;;;23.40;68.90;;;;;;4986330;28;19921;-71
2021/07/17 08:45:29;;;;;;;;;;;23.40;69.00;;;;;;4989758;28;20275;-71
2021/07/17 08:47:55;;;;;;;;;;;23.40;68.90;;;;;;4990994;28;19921;-71
2021/07/17 08:50:23;;;;;;;;;;;23.40;68.90;;;;;;4996454;28;19914;-71
2021/07/17 08:52:49;;;;;;;;;;;23.30;69.20;;;;;;4990991;28;19921;-71
2021/07/17 08:55:14;;;;;;;;;;;23.20;69.20;;;;;;4985082;28;20166;-71
2021/07/17 08:57:43;;;;;;;;;;;23.20;69.10;;;;;;4989626;28;20527;-71
2021/07/17 09:00:14;;;;;;;;;;;23.20;69.40;;;;;;4988714;28;19957;-72
2021/07/17 09:02:40;;;;;;;;;;;23.30;69.20;;;;;;5000819;28;20369;-71
2021/07/17 09:05:09;;;;;;;;;;;23.30;69.10;;;;;;4997215;28;20005;-71
2021/07/17 09:07:35;;;;;;;;;;;23.10;69.10;;;;;;4982118;28;19928;-71
2021/07/17 09:10:02;;;;;;;;;;;23.10;69.30;;;;;;4986384;28;19914;-71
2021/07/17 09:12:27;;;;;;;;;;;23.10;69.30;;;;;;4983933;28;19918;-71
2021/07/17 09:14:53;;;;;;;;;;;23.20;69.60;;;;;;4978530;28;19925;-71
2021/07/17 09:17:22;;;;;;;;;;;23.20;69.30;;;;;;4986454;28;19917;-70
2021/07/17 09:19:54;;;;;;;;;;;23.30;69.40;;;;;;4998233;28;19921;-71
2021/07/17 09:22:33;;;;;;;;;;;23.30;69.40;;;;;;4993614;28;19917;-71
2021/07/17 09:25:08;;;;;;;;;;;23.30;69.40;;;;;;4992243;28;19957;-71
2021/07/17 09:27:34;;;;;;;;;;;23.30;69.00;;;;;;4984497;28;19921;-71
2021/07/17 09:29:59;;;;;;;;;;;23.30;69.40;;;;;;5001471;28;20463;-71
2021/07/17 09:32:24;;;;;;;;;;;23.30;69.30;;;;;;4990979;28;19914;-72
2021/07/17 09:34:50;;;;;;;;;;;23.30;69.30;;;;;;4991168;28;19973;-71
2021/07/17 09:37:17;;;;;;;;;;;23.20;69.30;;;;;;5007999;28;20371;-72
2021/07/17 09:39:46;;;;;;;;;;;23.20;69.20;;;;;;4977931;28;19954;-71
2021/07/17 09:42:20;;;;;;;;;;;23.20;69.30;;;;;;4984929;28;19914;-71
2021/07/17 09:44:49;;;;;;;;;;;23.20;69.40;;;;;;4987639;28;20366;-71
2021/07/17 09:47:15;;;;;;;;;;;23.20;69.40;;;;;;4983355;28;19918;-71
2021/07/17 09:49:40;;;;;;;;;;;23.20;69.50;;;;;;4996755;28;19952;-71
2021/07/17 09:52:10;;;;;;;;;;;23.30;69.30;;;;;;4987710;28;19967;-71
2021/07/17 09:54:35;;;;;;;;;;;23.20;69.50;;;;;;4973769;28;19945;-72
2021/07/17 09:57:01;;;;;;;;;;;23.20;69.10;;;;;;4977859;28;19922;-69
2021/07/17 09:59:26;;;;;;;;;;;23.30;69.70;;;;;;4972433;28;19930;-72
2021/07/17 10:01:52;;;;;;;;;;;23.30;69.70;;;;;;4995155;28;20524;-71
2021/07/17 10:04:17;;;;;;;;;;;23.30;69.40;;;;;;4988551;28;20432;-70
2021/07/17 10:06:59;;;;;;;;;;;23.20;69.50;;;;;;4990490;28;19921;-72
2021/07/17 10:09:25;;;;;;;;;;;23.30;69.50;;;;;;5006380;28;19920;-71
2021/07/17 10:11:54;;;;;;;;;;;23.10;69.50;;;;;;4996015;28;19921;-72
2021/07/17 10:14:23;;;;;;;;;;;23.20;69.60;;;;;;4998459;28;20267;-71
2021/07/17 10:16:50;;;;;;;;;;;23.20;69.70;;;;;;4989858;28;19914;-71
2021/07/17 10:19:15;;;;;;;;;;;23.20;69.40;;;;;;4982174;28;19918;-71
2021/07/17 10:21:41;;;;;;;;;;;23.10;69.70;;;;;;4973097;28;19944;-71
2021/07/17 10:24:06;;;;;;;;;;;23.20;69.70;;;;;;4963527;28;19929;-71
2021/07/17 10:26:32;;;;;;;;;;;23.20;70.00;;;;;;4984826;28;20704;-71
2021/07/17 10:29:02;;;;;;;;;;;23.10;69.90;;;;;;4972070;28;19914;-71
2021/07/17 10:31:27;;;;;;;;;;;23.10;69.70;;;;;;4968250;28;19923;-71
2021/07/17 10:33:54;;;;;;;;;;;23.10;69.70;;;;;;4992509;28;19917;-71
2021/07/17 10:36:19;;;;;;;;;;;23.10;69.70;;;;;;4982735;28;20366;-71
2021/07/17 10:38:44;;;;;;;;;;;23.20;70.20;;;;;;4987810;28;20009;-71
2021/07/17 10:41:13;;;;;;;;;;;23.10;70.20;;;;;;4973640;28;19922;-71
2021/07/17 10:43:39;;;;;;;;;;;23.10;70.00;;;;;;4989708;28;19915;-71
2021/07/17 10:46:05;;;;;;;;;;;23.10;70.20;;;;;;4978162;28;19918;-71
2021/07/17 10:48:31;;;;;;;;;;;23.10;70.20;;;;;;4980749;28;19915;-71
2021/07/17 10:51:17;;;;;;;;;;;23.10;70.10;;;;;;4985760;28;20388;-71
2021/07/17 10:53:43;;;;;;;;;;;23.10;70.40;;;;;;4983271;28;19924;-71
2021/07/17 10:56:33;;;;;;;;;;;23.20;70.40;;;;;;4997505;28;19918;-71
2021/07/17 10:58:59;;;;;;;;;;;23.10;70.30;;;;;;4994323;28;19933;-71
2021/07/17 11:01:24;;;;;;;;;;;23.20;70.30;;;;;;4977698;28;19914;-71
2021/07/17 11:03:50;;;;;;;;;;;23.20;70.30;;;;;;4976763;28;19927;-71
2021/07/17 11:06:22;;;;;;;;;;;23.20;70.30;;;;;;4984115;28;19914;-71
2021/07/17 11:08:47;;;;;;;;;;;23.10;70.30;;;;;;4976931;28;19929;-71
2021/07/17 11:11:28;;;;;;;;;;;23.10;70.40;;;;;;4984649;28;19914;-71
2021/07/17 11:13:53;;;;;;;;;;;23.10;70.30;;;;;;4994912;28;20013;-71
2021/07/17 11:16:37;;;;;;;;;;;23.20;70.50;;;;;;4984617;28;20000;-71
2021/07/17 11:19:12;;;;;;;;;;;23.10;70.30;;;;;;4976192;28;19918;-72
2021/07/17 11:21:37;;;;;;;;;;;23.10;70.40;;;;;;4983335;28;19922;-71
2021/07/17 11:24:04;;;;;;;;;;;23.10;70.70;;;;;;5004842;28;20404;-72
2021/07/17 11:26:30;;;;;;;;;;;23.10;70.60;;;;;;4997278;28;19960;-72
2021/07/17 11:29:02;;;;;;;;;;;23.10;70.80;;;;;;4975926;28;19940;-71
2021/07/17 11:31:27;;;;;;;;;;;23.10;71.00;;;;;;4986698;28;19975;-72
2021/07/17 11:34:25;;;;;;;;;;;23.10;70.80;;;;;;4986294;28;19917;-72
2021/07/17 11:36:53;;;;;;;;;;;23.10;70.70;;;;;;4978517;28;20295;-70
2021/07/17 11:39:24;;;;;;;;;;;23.10;70.70;;;;;;4980670;28;19930;-72
2021/07/17 11:41:50;;;;;;;;;;;23.10;70.80;;;;;;4988519;28;20374;-72
2021/07/17 11:44:15;;;;;;;;;;;23.20;71.00;;;;;;4982551;28;19915;-72
2021/07/17 11:46:53;;;;;;;;;;;23.10;70.80;;;;;;4982977;28;20008;-72
2021/07/17 11:49:18;;;;;;;;;;;23.10;71.00;;;;;;4990721;28;19914;-72
2021/07/17 11:51:47;;;;;;;;;;;23.10;70.70;;;;;;4979623;28;20399;-72
2021/07/17 11:54:13;;;;;;;;;;;23.10;71.00;;;;;;4987180;28;20735;-71
2021/07/17 11:56:38;;;;;;;;;;;23.10;71.30;;;;;;4976540;28;19914;-70
2021/07/17 11:59:11;;;;;;;;;;;23.00;71.20;;;;;;4998087;28;21949;-71
2021/07/17 12:01:36;;;;;;;;;;;23.10;71.50;;;;;;4983047;28;20701;-70
2021/07/17 12:04:01;;;;;;;;;;;23.10;71.30;;;;;;4998225;28;20411;-70
2021/07/17 12:06:27;;;;;;;;;;;23.10;71.50;;;;;;4986173;28;19914;-71
2021/07/17 12:08:53;;;;;;;;;;;23.10;71.60;;;;;;5013350;28;19917;-71
2021/07/17 12:11:19;;;;;;;;;;;23.10;71.50;;;;;;4977408;28;19988;-71
2021/07/17 12:13:45;;;;;;;;;;;23.10;71.40;;;;;;4984613;28;19922;-72
2021/07/17 12:16:20;;;;;;;;;;;23.10;71.30;;;;;;4979734;28;19913;-72
2021/07/17 12:18:52;;;;;;;;;;;23.10;71.60;;;;;;4991388;28;19922;-72
2021/07/17 12:21:18;;;;;;;;;;;23.10;71.60;;;;;;4966901;28;20008;-73
2021/07/17 12:23:43;;;;;;;;;;;23.10;71.30;;;;;;4998395;28;19971;-70
2021/07/17 12:26:09;;;;;;;;;;;23.10;71.60;;;;;;4971827;28;19917;-71
2021/07/17 12:28:36;;;;;;;;;;;23.10;71.50;;;;;;4995360;28;20319;-71
2021/07/17 12:31:07;;;;;;;;;;;23.10;71.40;;;;;;4972763;28;19981;-72
2021/07/17 12:33:33;;;;;;;;;;;23.10;71.70;;;;;;5001247;28;19918;-71
2021/07/17 12:36:00;;;;;;;;;;;23.10;71.90;;;;;;4974617;28;19913;-71
2021/07/17 12:38:26;;;;;;;;;;;23.10;72.00;;;;;;5000268;28;19917;-72
2021/07/17 12:41:04;;;;;;;;;;;23.10;72.00;;;;;;4968724;28;20392;-72
2021/07/17 12:43:32;;;;;;;;;;;23.10;72.00;;;;;;4994293;28;19925;-72
2021/07/17 12:45:59;;;;;;;;;;;23.00;71.90;;;;;;4975999;28;19914;-72
2021/07/17 12:48:24;;;;;;;;;;;23.10;71.90;;;;;;4988306;28;19970;-72
2021/07/17 12:51:01;;;;;;;;;;;23.10;71.50;;;;;;4959671;28;19922;-71
2021/07/17 12:53:26;;;;;;;;;;;23.10;71.80;;;;;;4995517;28;19918;-71
2021/07/17 12:55:51;;;;;;;;;;;23.10;71.70;;;;;;4982528;28;19983;-70
2021/07/17 12:58:17;;;;;;;;;;;23.10;71.70;;;;;;5001556;28;19928;-70
2021/07/17 13:00:43;;;;;;;;;;;23.10;71.70;;;;;;4990188;28;19922;-71
2021/07/17 13:03:10;;;;;;;;;;;23.10;71.90;;;;;;4999401;28;19922;-70
2021/07/17 13:05:49;;;;;;;;;;;23.10;71.90;;;;;;4987853;28;19922;-71
2021/07/17 13:08:18;;;;;;;;;;;23.10;71.80;;;;;;4997142;28;19917;-71
2021/07/17 13:10:43;;;;;;;;;;;23.10;71.80;;;;;;4991973;28;19993;-71
2021/07/17 13:13:09;;;;;;;;;;;23.20;71.70;;;;;;5002861;28;19937;-71
2021/07/17 13:15:35;;;;;;;;;;;23.20;71.70;;;;;;4993654;28;19920;-71
2021/07/17 13:18:00;;;;;;;;;;;23.10;72.00;;;;;;4982378;28;19949;-70
2021/07/17 13:20:26;;;;;;;;;;;23.10;72.00;;;;;;4977732;28;19925;-71
2021/07/17 13:22:51;;;;;;;;;;;23.10;72.20;;;;;;5001537;28;20000;-71
2021/07/17 13:25:21;;;;;;;;;;;23.10;72.20;;;;;;4986131;28;19922;-70
2021/07/17 13:27:47;;;;;;;;;;;23.10;71.90;;;;;;4982439;28;19922;-70
2021/07/17 13:30:12;;;;;;;;;;;23.10;72.40;;;;;;4969657;28;20387;-71
2021/07/17 13:32:39;;;;;;;;;;;23.10;72.20;;;;;;4991278;28;19914;-70
2021/07/17 13:35:16;;;;;;;;;;;23.10;72.10;;;;;;4987539;28;19914;-71
2021/07/17 13:37:42;;;;;;;;;;;23.10;72.10;;;;;;4985021;28;19921;-71
2021/07/17 13:40:11;;;;;;;;;;;23.10;72.10;;;;;;4988022;28;19976;-70
2021/07/17 13:42:37;;;;;;;;;;;23.10;72.20;;;;;;4975173;28;20002;-71
2021/07/17 13:45:05;;;;;;;;;;;23.10;72.30;;;;;;4989569;28;20000;-71
2021/07/17 13:47:50;;;;;;;;;;;23.20;72.30;;;;;;4996301;28;19914;-71
2021/07/17 13:50:21;;;;;;;;;;;23.20;72.50;;;;;;4995498;28;19937;-71
2021/07/17 13:52:47;;;;;;;;;;;23.10;72.60;;;;;;4976071;28;20396;-71
2021/07/17 13:55:13;;;;;;;;;;;23.10;72.60;;;;;;4970005;28;19964;-70
2021/07/17 13:57:40;;;;;;;;;;;23.10;72.50;;;;;;4984565;28;19921;-71
2021/07/17 14:00:10;;;;;;;;;;;23.10;72.60;;;;;;4969699;28;19949;-70
2021/07/17 14:02:35;;;;;;;;;;;23.20;72.70;;;;;;4975351;28;19914;-71
2021/07/17 14:05:02;;;;;;;;;;;23.20;72.90;;;;;;4984060;28;19937;-71
2021/07/17 14:07:28;;;;;;;;;;;23.10;72.90;;;;;;4999005;28;20020;-71
2021/07/17 14:09:53;;;;;;;;;;;23.10;72.80;;;;;;4998119;28;19915;-71
2021/07/17 14:12:19;;;;;;;;;;;23.10;72.80;;;;;;4987003;28;19913;-71